Adamki, Belarus

2:01 AM +03 on January 20, 2018 (GMT +0300)
Н8939 | | Change Station

Elev 826 ft 53.99 °N, 27.23 °E | Updated 22 minutes ago

Overcast
Overcast
30.2 °F
Feels Like 30 °F
N
0.6
Wind Variable Wind from West
Gusts 2.5 mph

Today
High -- | Low -- °F
--% Chance of Precip.
Yesterday
High -- | Low -- °F
Precip. -- in
Pressure 29.56 in
Visibility 1.2 miles
Clouds Mostly Cloudy 800 ft
Mostly Cloudy 3100 ft
Windchill 30 °F
Dew Point 30 °F
Humidity 100%
Rainfall 0.00 in
Snow Depth Not available.
9:18 AM 5:31 PM
Waxing Crescent, 7% visible
SPECI UMMS 192252Z 00000MPS 1900 SHSN BR BKN008 BKN031CB M02/M02 Q1001 R13/590636 TEMPO 1200
Pressure 29.56 in
Visibility 1.2 miles
Clouds Mostly Cloudy 800 ft
Mostly Cloudy 3100 ft
Windchill 30 °F
Dew Point 30 °F
Humidity 100%
Rainfall 0.00 in
Snow Depth Not available.
9:18 AM 5:31 PM
Waxing Crescent, 7% visible
SPECI UMMS 192252Z 00000MPS 1900 SHSN BR BKN008 BKN031CB M02/M02 Q1001 R13/590636 TEMPO 1200

Get Severe Weather Alerts

Thanks for signing up!

Be on the lookout for a verification email in your inbox.

You'll start receiving the daily forecast at 6 AM.

×

10-Day Weather Forecast

×

Almanac

Astronomy

Jan. 20, 2018 Rise Set
Actual Time
Civil Twilight
Nautical Twilight
Astronomical Twilight
Moon
Length of Visible Light
Length of Day
Tomorrow will be .
, % of the Moon is Illuminated

Today's Extremes

Country Highs Country Lows

Community

WunderPhotos

Category 6

Welcome to Category 6. This is the collective home for Weather Underground's featured writeups by Dr. Jeff Masters (right), Bob Henson (left), Chris Burt, and other regular contributors.

Nearby

Air Quality

  Air Quality AQ Index Pollutant
Not available.

Snow Depth

Station Depth Elevation

Earthquake Activity

City Distance Mag. Time & Date
Minimum magnitude displayed is 2.5.

Coastal Water Temperatures

Place Temperature

Stations

Nearby Weather Stations

Station Location Temp. Windchill Dew Point Humidity Wind Precip. Elev Updated Type